Time,TemperatureF,DewpointF,PressureIn,WindDirection,WindDirectionDegrees,WindSpeedMPH,WindSpeedGustMPH,Humidity,HourlyPrecipIn,Conditions,Clouds,dailyrainin,SoftwareType,DateUTC
2013-08-13 00:01:00,62.7,61.0,29.87,South,180,0.0,-999.0,94,-99.99,,,-99.99,MetarLogicWeatherSta,2013-08-13 04:01:00,
2013-08-13 00:06:00,62.9,61.0,29.87,SSE,157,0.0,-999.0,93,-99.99,,,-99.99,MetarLogicWeatherSta,2013-08-13 04:06:00,
2013-08-13 00:11:00,63.1,61.2,29.86,SSE,157,0.0,-999.0,93,-99.99,,,-99.99,MetarLogicWeatherSta,2013-08-13 04:11:00,
2013-08-13 00:16:00,63.8,62.0,29.86,South,180,0.0,-999.0,93,-99.99,,,-99.99,MetarLogicWeatherSta,2013-08-13 04:16:00,
2013-08-13 00:21:00,63.9,61.9,29.86,SSE,157,0.0,-999.0,93,-99.99,,,-99.99,MetarLogicWeatherSta,2013-08-13 04:21:00,
2013-08-13 00:26:00,64.1,62.0,29.86,SSE,157,0.0,-999.0,92,-99.99,,,-99.99,MetarLogicWeatherSta,2013-08-13 04:26:00,
2013-08-13 00:31:00,64.2,61.9,29.86,SSE,157,0.0,-999.0,92,-99.99,,,-99.99,MetarLogicWeatherSta,2013-08-13 04:31:00,
2013-08-13 00:36:00,64.3,62.1,29.86,SSE,157,0.0,-999.0,92,-99.99,,,-99.99,MetarLogicWeatherSta,2013-08-13 04:36:00,
2013-08-13 00:41:00,64.3,61.9,29.85,SSE,157,0.0,-999.0,91,-99.99,,,-99.99,MetarLogicWeatherSta,2013-08-13 04:41:00,
2013-08-13 00:46:00,64.4,61.9,29.86,South,180,0.0,-999.0,91,-99.99,,,-99.99,MetarLogicWeatherSta,2013-08-13 04:46:00,
2013-08-13 00:51:00,64.6,61.7,29.86,SSE,157,0.0,-999.0,90,-99.99,,,-99.99,MetarLogicWeatherSta,2013-08-13 04:51:00,
2013-08-13 00:56:00,64.4,61.5,29.86,SSE,157,0.0,-999.0,90,-99.99,,,-99.99,MetarLogicWeatherSta,2013-08-13 04:56:00,
2013-08-13 01:01:00,64.6,61.6,29.85,SSE,157,0.0,-999.0,89,-99.99,,,-99.99,MetarLogicWeatherSta,2013-08-13 05:01:00,
2013-08-13 01:06:00,64.6,61.5,29.85,SSE,157,0.0,-999.0,89,-99.99,,,-99.99,MetarLogicWeatherSta,2013-08-13 05:06:00,
2013-08-13 01:11:00,64.6,61.5,29.85,SSE,157,0.0,-999.0,89,-99.99,,,-99.99,MetarLogicWeatherSta,2013-08-13 05:11:00,
2013-08-13 01:16:00,64.6,61.4,29.84,SSE,157,0.0,-999.0,89,-99.99,,,-99.99,MetarLogicWeatherSta,2013-08-13 05:16:00,
2013-08-13 01:21:00,64.7,61.4,29.85,SSE,157,0.0,-999.0,88,-99.99,,,-99.99,MetarLogicWeatherSta,2013-08-13 05:21:00,
2013-08-13 01:26:00,64.7,61.2,29.84,SSE,157,0.0,-999.0,88,-99.99,,,-99.99,MetarLogicWeatherSta,2013-08-13 05:26:00,
2013-08-13 01:31:00,64.7,61.3,29.84,South,180,0.0,-999.0,88,-99.99,,,-99.99,MetarLogicWeatherSta,2013-08-13 05:31:00,
2013-08-13 01:36:00,64.7,61.4,29.84,South,180,0.0,-999.0,88,-99.99,,,-99.99,MetarLogicWeatherSta,2013-08-13 05:36:00,
2013-08-13 01:41:00,64.5,61.0,29.84,South,180,0.0,-999.0,88,-99.99,,,-99.99,MetarLogicWeatherSta,2013-08-13 05:41:00,
2013-08-13 01:46:00,64.4,60.9,29.84,SSE,157,0.0,-999.0,88,-99.99,,,-99.99,MetarLogicWeatherSta,2013-08-13 05:46:00,
2013-08-13 01:51:00,64.2,60.8,29.84,South,180,0.0,-999.0,88,-99.99,,,-99.99,MetarLogicWeatherSta,2013-08-13 05:51:00,
2013-08-13 01:56:00,64.2,60.9,29.83,SSE,157,0.0,-999.0,88,-99.99,,,-99.99,MetarLogicWeatherSta,2013-08-13 05:56:00,
2013-08-13 02:01:00,64.2,60.8,29.82,SSE,157,0.0,-999.0,88,-99.99,,,-99.99,MetarLogicWeatherSta,2013-08-13 06:01:00,
2013-08-13 02:06:00,64.2,60.9,29.83,South,180,0.0,-999.0,88,-99.99,,,-99.99,MetarLogicWeatherSta,2013-08-13 06:06:00,
2013-08-13 02:11:00,64.2,60.9,29.83,SSE,157,0.0,-999.0,88,-99.99,,,-99.99,MetarLogicWeatherSta,2013-08-13 06:11:00,
2013-08-13 02:16:00,64.2,60.8,29.82,SSE,157,0.0,-999.0,88,-99.99,,,-99.99,MetarLogicWeatherSta,2013-08-13 06:16:00,
2013-08-13 02:21:00,64.1,60.6,29.83,SSE,157,0.0,-999.0,88,-99.99,,,-99.99,MetarLogicWeatherSta,2013-08-13 06:21:00,
2013-08-13 02:26:00,64.2,60.9,29.83,South,180,0.0,-999.0,88,-99.99,,,-99.99,MetarLogicWeatherSta,2013-08-13 06:26:00,
2013-08-13 02:31:00,63.9,60.6,29.84,SSE,157,0.0,-999.0,88,-99.99,,,-99.99,MetarLogicWeatherSta,2013-08-13 06:31:00,
2013-08-13 02:36:00,63.9,60.8,29.84,South,180,0.0,-999.0,89,-99.99,,,-99.99,MetarLogicWeatherSta,2013-08-13 06:36:00,
2013-08-13 02:41:00,63.5,60.5,29.82,South,180,0.0,-999.0,89,-99.99,,,-99.99,MetarLogicWeatherSta,2013-08-13 06:41:00,
2013-08-13 02:46:00,63.4,60.5,29.82,SSE,157,0.0,-999.0,90,-99.99,,,-99.99,MetarLogicWeatherSta,2013-08-13 06:46:00,
2013-08-13 02:51:00,63.2,60.4,29.82,SSE,157,0.0,-999.0,90,-99.99,,,-99.99,MetarLogicWeatherSta,2013-08-13 06:51:00,
2013-08-13 02:56:00,63.0,60.2,29.82,SSE,157,0.0,-999.0,90,-99.99,,,-99.99,MetarLogicWeatherSta,2013-08-13 06:56:00,
2013-08-13 03:01:00,63.0,60.4,29.82,SSE,157,0.0,-999.0,91,-99.99,,,-99.99,MetarLogicWeatherSta,2013-08-13 07:01:00,
2013-08-13 03:06:00,62.9,60.5,29.81,SSE,157,0.0,-999.0,91,-99.99,,,-99.99,MetarLogicWeatherSta,2013-08-13 07:06:00,
2013-08-13 03:11:00,62.7,60.4,29.82,SSE,157,0.0,-999.0,92,-99.99,,,-99.99,MetarLogicWeatherSta,2013-08-13 07:11:00,
2013-08-13 03:16:00,62.7,60.4,29.82,SE,135,0.0,-999.0,92,-99.99,,,-99.99,MetarLogicWeatherSta,2013-08-13 07:16:00,
2013-08-13 03:21:00,62.7,60.4,29.81,SSE,157,0.0,-999.0,92,-99.99,,,-99.99,MetarLogicWeatherSta,2013-08-13 07:21:00,
2013-08-13 03:26:00,62.8,60.6,29.81,South,180,0.0,-999.0,92,-99.99,,,-99.99,MetarLogicWeatherSta,2013-08-13 07:26:00,
2013-08-13 03:31:00,62.8,60.8,29.82,SSE,157,0.0,-999.0,92,-99.99,,,-99.99,MetarLogicWeatherSta,2013-08-13 07:31:00,
2013-08-13 03:36:00,62.9,60.9,29.81,South,180,0.0,-999.0,93,-99.99,,,-99.99,MetarLogicWeatherSta,2013-08-13 07:36:00,
2013-08-13 03:41:00,62.5,60.6,29.82,South,180,0.0,-999.0,93,-99.99,,,-99.99,MetarLogicWeatherSta,2013-08-13 07:41:00,
2013-08-13 03:46:00,62.6,60.7,29.80,SE,135,0.0,-999.0,93,-99.99,,,-99.99,MetarLogicWeatherSta,2013-08-13 07:46:00,
2013-08-13 03:51:00,62.4,60.8,29.79,SSE,157,0.0,-999.0,94,-99.99,,,-99.99,MetarLogicWeatherSta,2013-08-13 07:51:00,
2013-08-13 03:56:00,62.4,60.7,29.80,SSE,157,0.0,-999.0,94,-99.99,,,-99.99,MetarLogicWeatherSta,2013-08-13 07:56:00,
2013-08-13 04:01:00,62.7,61.0,29.81,SE,135,0.0,-999.0,94,-99.99,,,-99.99,MetarLogicWeatherSta,2013-08-13 08:01:00,
2013-08-13 04:06:00,62.4,60.9,29.80,SSE,157,0.0,-999.0,94,-99.99,,,-99.99,MetarLogicWeatherSta,2013-08-13 08:06:00,
2013-08-13 04:11:00,62.4,60.8,29.80,East,90,3.0,-999.0,94,-99.99,,,-99.99,MetarLogicWeatherSta,2013-08-13 08:11:00,
2013-08-13 04:16:00,62.4,61.0,29.80,SE,135,1.0,-999.0,95,-99.99,,,-99.99,MetarLogicWeatherSta,2013-08-13 08:16:00,
2013-08-13 04:21:00,62.2,60.7,29.80,SSE,157,0.0,-999.0,94,-99.99,,,-99.99,MetarLogicWeatherSta,2013-08-13 08:21:00,
2013-08-13 04:26:00,62.4,60.9,29.80,SSE,157,0.0,-999.0,94,-99.99,,,-99.99,MetarLogicWeatherSta,2013-08-13 08:26:00,
2013-08-13 04:31:00,62.3,60.9,29.81,SSE,157,0.0,-999.0,95,-99.99,,,-99.99,MetarLogicWeatherSta,2013-08-13 08:31:00,
2013-08-13 04:36:00,62.4,61.1,29.80,SSE,157,0.0,-999.0,95,-99.99,,,-99.99,MetarLogicWeatherSta,2013-08-13 08:36:00,
2013-08-13 04:41:00,62.2,61.0,29.80,SSE,157,0.0,-999.0,95,-99.99,,,-99.99,MetarLogicWeatherSta,2013-08-13 08:41:00,
2013-08-13 04:46:00,62.4,61.1,29.81,SSE,157,0.0,-999.0,95,-99.99,,,-99.99,MetarLogicWeatherSta,2013-08-13 08:46:00,
2013-08-13 04:51:00,62.1,60.9,29.79,East,90,4.0,-999.0,95,-99.99,,,-99.99,MetarLogicWeatherSta,2013-08-13 08:51:00,
2013-08-13 04:56:00,62.3,61.1,29.80,South,180,0.0,-999.0,95,-99.99,,,-99.99,MetarLogicWeatherSta,2013-08-13 08:56:00,
2013-08-13 05:01:00,62.3,61.1,29.79,SSE,157,0.0,-999.0,95,-99.99,,,-99.99,MetarLogicWeatherSta,2013-08-13 09:01:00,
2013-08-13 05:06:00,62.3,61.3,29.80,SSE,157,0.0,-999.0,96,-99.99,,,-99.99,MetarLogicWeatherSta,2013-08-13 09:06:00,
2013-08-13 05:11:00,62.1,61.0,29.80,ESE,112,1.0,-999.0,96,-99.99,,,-99.99,MetarLogicWeatherSta,2013-08-13 09:11:00,
2013-08-13 05:16:00,62.0,61.0,29.80,SSE,157,0.0,-999.0,96,-99.99,,,-99.99,MetarLogicWeatherSta,2013-08-13 09:16:00,
2013-08-13 05:21:00,62.2,61.2,29.80,SSE,157,0.0,-999.0,96,-99.99,,,-99.99,MetarLogicWeatherSta,2013-08-13 09:21:00,
2013-08-13 05:26:00,62.0,60.9,29.80,South,180,0.0,-999.0,96,-99.99,,,-99.99,MetarLogicWeatherSta,2013-08-13 09:26:00,
2013-08-13 05:31:00,62.3,61.1,29.80,SSE,157,0.0,-999.0,95,-99.99,,,-99.99,MetarLogicWeatherSta,2013-08-13 09:31:00,
2013-08-13 05:36:00,61.7,60.7,29.80,SSE,157,0.0,-999.0,96,-99.99,,,-99.99,MetarLogicWeatherSta,2013-08-13 09:36:00,
2013-08-13 05:41:00,62.0,61.3,29.79,SSE,157,0.0,-999.0,97,-99.99,,,-99.99,MetarLogicWeatherSta,2013-08-13 09:41:00,
2013-08-13 05:46:00,62.0,61.1,29.79,SSE,157,0.0,-999.0,96,-99.99,,,-99.99,MetarLogicWeatherSta,2013-08-13 09:46:00,
2013-08-13 05:51:00,62.1,61.2,29.79,South,180,0.0,-999.0,96,-99.99,,,-99.99,MetarLogicWeatherSta,2013-08-13 09:51:00,
2013-08-13 05:56:00,62.1,61.4,29.78,East,90,3.0,-999.0,97,-99.99,,,-99.99,MetarLogicWeatherSta,2013-08-13 09:56:00,
2013-08-13 06:01:00,62.3,61.5,29.78,SSE,157,0.0,-999.0,97,-99.99,,,-99.99,MetarLogicWeatherSta,2013-08-13 10:01:00,
2013-08-13 06:06:00,62.2,61.4,29.79,South,180,0.0,-999.0,97,-99.99,,,-99.99,MetarLogicWeatherSta,2013-08-13 10:06:00,
2013-08-13 06:11:00,62.1,61.2,29.79,South,180,0.0,-999.0,96,-99.99,,,-99.99,MetarLogicWeatherSta,2013-08-13 10:11:00,
2013-08-13 06:16:00,62.2,61.4,29.79,SE,135,0.0,-999.0,97,-99.99,,,-99.99,MetarLogicWeatherSta,2013-08-13 10:16:00,
2013-08-13 06:21:00,62.1,61.2,29.78,SSE,157,0.0,-999.0,96,-99.99,,,-99.99,MetarLogicWeatherSta,2013-08-13 10:21:00,
2013-08-13 06:26:00,62.3,61.5,29.78,SE,135,0.0,-999.0,97,-99.99,,,-99.99,MetarLogicWeatherSta,2013-08-13 10:26:00,
2013-08-13 06:31:00,62.0,61.3,29.77,SE,135,0.0,-999.0,97,-99.99,,,-99.99,MetarLogicWeatherSta,2013-08-13 10:31:00,
2013-08-13 06:36:00,62.1,61.5,29.78,SSE,157,0.0,-999.0,97,-99.99,,,-99.99,MetarLogicWeatherSta,2013-08-13 10:36:00,
2013-08-13 06:41:00,62.0,61.2,29.78,SSE,157,0.0,-999.0,97,-99.99,,,-99.99,MetarLogicWeatherSta,2013-08-13 10:41:00,
2013-08-13 06:46:00,62.1,61.3,29.77,SSE,157,0.0,-999.0,97,-99.99,,,-99.99,MetarLogicWeatherSta,2013-08-13 10:46:00,
2013-08-13 06:51:00,62.1,61.5,29.78,SSE,157,0.0,-999.0,97,-99.99,,,-99.99,MetarLogicWeatherSta,2013-08-13 10:51:00,
2013-08-13 06:56:00,62.0,61.3,29.77,SSE,157,0.0,-999.0,97,-99.99,,,-99.99,MetarLogicWeatherSta,2013-08-13 10:56:00,
2013-08-13 07:01:00,62.0,61.3,29.77,SE,135,0.0,-999.0,97,-99.99,,,-99.99,MetarLogicWeatherSta,2013-08-13 11:01:00,
2013-08-13 07:06:00,62.0,61.4,29.76,ESE,112,0.0,-999.0,97,-99.99,,,-99.99,MetarLogicWeatherSta,2013-08-13 11:06:00,
2013-08-13 07:11:00,62.1,61.4,29.75,East,90,3.0,-999.0,97,-99.99,,,-99.99,MetarLogicWeatherSta,2013-08-13 11:11:00,
2013-08-13 07:16:00,62.0,61.5,29.75,SE,135,0.0,-999.0,97,-99.99,,,-99.99,MetarLogicWeatherSta,2013-08-13 11:16:00,
2013-08-13 07:21:00,62.2,61.7,29.76,SSE,157,0.0,-999.0,98,-99.99,,,-99.99,MetarLogicWeatherSta,2013-08-13 11:21:00,
2013-08-13 07:26:00,62.2,61.5,29.76,South,180,0.0,-999.0,97,-99.99,,,-99.99,MetarLogicWeatherSta,2013-08-13 11:26:00,
2013-08-13 07:31:00,62.4,61.8,29.76,South,180,0.0,-999.0,97,-99.99,,,-99.99,MetarLogicWeatherSta,2013-08-13 11:31:00,
2013-08-13 07:36:00,62.4,61.7,29.76,South,180,0.0,-999.0,97,-99.99,,,-99.99,MetarLogicWeatherSta,2013-08-13 11:36:00,
2013-08-13 07:41:00,62.7,62.0,29.77,SSE,157,0.0,-999.0,97,-99.99,,,-99.99,MetarLogicWeatherSta,2013-08-13 11:41:00,
2013-08-13 07:46:00,62.7,62.1,29.76,SSE,157,0.0,-999.0,97,-99.99,,,-99.99,MetarLogicWeatherSta,2013-08-13 11:46:00,
2013-08-13 07:51:00,62.7,62.2,29.76,SSE,157,0.0,-999.0,98,-99.99,,,-99.99,MetarLogicWeatherSta,2013-08-13 11:51:00,
2013-08-13 07:56:00,63.0,62.4,29.76,SSE,157,0.0,-999.0,98,-99.99,,,-99.99,MetarLogicWeatherSta,2013-08-13 11:56:00,
2013-08-13 08:01:00,63.0,62.6,29.76,South,180,0.0,-999.0,98,-99.99,,,-99.99,MetarLogicWeatherSta,2013-08-13 12:01:00,
2013-08-13 08:06:00,63.1,62.5,29.76,South,180,0.0,-999.0,97,-99.99,,,-99.99,MetarLogicWeatherSta,2013-08-13 12:06:00,
2013-08-13 08:11:00,63.4,62.8,29.76,South,180,0.0,-999.0,97,-99.99,,,-99.99,MetarLogicWeatherSta,2013-08-13 12:11:00,
2013-08-13 08:16:00,63.6,63.0,29.76,SSE,157,0.0,-999.0,98,-99.99,,,-99.99,MetarLogicWeatherSta,2013-08-13 12:16:00,
2013-08-13 08:21:00,64.2,63.6,29.76,South,180,0.0,-999.0,98,-99.99,,,-99.99,MetarLogicWeatherSta,2013-08-13 12:21:00,
2013-08-13 08:26:00,64.6,64.2,29.77,South,180,0.0,-999.0,98,-99.99,,,-99.99,MetarLogicWeatherSta,2013-08-13 12:26:00,
2013-08-13 08:31:00,64.8,64.3,29.76,South,180,0.0,-999.0,97,-99.99,,,-99.99,MetarLogicWeatherSta,2013-08-13 12:31:00,
2013-08-13 08:36:00,65.0,64.4,29.76,South,180,0.0,-999.0,97,-99.99,,,-99.99,MetarLogicWeatherSta,2013-08-13 12:36:00,
2013-08-13 08:41:00,65.0,64.6,29.76,South,180,0.0,-999.0,98,-99.99,,,-99.99,MetarLogicWeatherSta,2013-08-13 12:41:00,
2013-08-13 08:46:00,65.4,64.8,29.77,South,180,0.0,-999.0,98,-99.99,,,-99.99,MetarLogicWeatherSta,2013-08-13 12:46:00,
2013-08-13 08:51:00,65.6,65.0,29.76,South,180,0.0,-999.0,97,-99.99,,,-99.99,MetarLogicWeatherSta,2013-08-13 12:51:00,
2013-08-13 08:56:00,66.0,65.7,29.76,South,180,0.0,-999.0,98,-99.99,,,-99.99,MetarLogicWeatherSta,2013-08-13 12:56:00,
2013-08-13 09:02:00,67.0,66.7,29.76,South,180,0.0,-999.0,98,-99.99,,,-99.99,MetarLogicWeatherSta,2013-08-13 13:02:00,
2013-08-13 09:07:00,67.6,66.8,29.76,SSE,157,0.0,-999.0,97,-99.99,,,-99.99,MetarLogicWeatherSta,2013-08-13 13:07:00,
2013-08-13 09:12:00,68.3,67.6,29.76,South,180,0.0,-999.0,97,-99.99,,,-99.99,MetarLogicWeatherSta,2013-08-13 13:12:00,
2013-08-13 09:17:00,69.0,68.3,29.76,South,180,0.0,-999.0,97,-99.99,,,-99.99,MetarLogicWeatherSta,2013-08-13 13:17:00,
2013-08-13 09:22:00,69.0,67.9,29.76,South,180,1.0,-999.0,96,-99.99,,,-99.99,MetarLogicWeatherSta,2013-08-13 13:22:00,
2013-08-13 09:27:00,69.5,68.0,29.76,South,180,1.0,-999.0,94,-99.99,,,-99.99,MetarLogicWeatherSta,2013-08-13 13:27:00,
2013-08-13 09:32:00,69.8,68.4,29.76,South,180,0.0,-999.0,95,-99.99,,,-99.99,MetarLogicWeatherSta,2013-08-13 13:32:00,
2013-08-13 09:37:00,70.3,68.7,29.76,SSW,200,0.2,3.0,94,-99.99,,,-99.99,MetarLogicWeatherSta,2013-08-13 13:37:00,
2013-08-13 09:43:00,70.3,67.5,29.76,SSW,211,0.4,3.0,90,-99.99,,,-99.99,MetarLogicWeatherSta,2013-08-13 13:43:00,
2013-08-13 09:48:00,69.8,66.5,29.77,South,180,0.0,-999.0,89,-99.99,,,-99.99,MetarLogicWeatherSta,2013-08-13 13:48:00,
2013-08-13 09:53:00,69.9,66.3,29.77,South,180,0.0,-999.0,88,-99.99,,,-99.99,MetarLogicWeatherSta,2013-08-13 13:53:00,
2013-08-13 09:58:00,70.6,67.3,29.77,South,180,1.0,-999.0,89,-99.99,,,-99.99,MetarLogicWeatherSta,2013-08-13 13:58:00,
2013-08-13 10:03:00,70.0,66.0,29.77,South,180,0.0,-999.0,87,-99.99,,,-99.99,MetarLogicWeatherSta,2013-08-13 14:03:00,
2013-08-13 10:08:00,69.5,65.4,29.77,South,180,0.0,-999.0,86,-99.99,,,-99.99,MetarLogicWeatherSta,2013-08-13 14:08:00,
2013-08-13 10:13:00,69.1,65.2,29.77,South,180,1.0,-999.0,87,-99.99,,,-99.99,MetarLogicWeatherSta,2013-08-13 14:13:00,
2013-08-13 10:18:00,68.7,65.2,29.77,South,180,0.0,-999.0,88,-99.99,,,-99.99,MetarLogicWeatherSta,2013-08-13 14:18:00,
2013-08-13 10:23:00,68.6,64.8,29.77,South,180,0.0,-999.0,87,-99.99,,,-99.99,MetarLogicWeatherSta,2013-08-13 14:23:00,
2013-08-13 10:28:00,68.6,65.1,29.77,South,180,0.0,-999.0,88,-99.99,,,-99.99,MetarLogicWeatherSta,2013-08-13 14:28:00,
2013-08-13 10:33:00,68.3,64.7,29.77,South,180,0.0,-999.0,88,-99.99,,,-99.99,MetarLogicWeatherSta,2013-08-13 14:33:00,
2013-08-13 10:38:00,68.4,65.1,29.77,South,180,0.0,-999.0,89,-99.99,,,-99.99,MetarLogicWeatherSta,2013-08-13 14:38:00,
2013-08-13 10:43:00,68.5,65.1,29.77,South,180,0.0,-999.0,88,-99.99,,,-99.99,MetarLogicWeatherSta,2013-08-13 14:43:00,
2013-08-13 10:48:00,68.5,65.0,29.78,South,180,0.0,-999.0,88,-99.99,,,-99.99,MetarLogicWeatherSta,2013-08-13 14:48:00,
2013-08-13 10:53:00,68.6,65.1,29.78,South,180,0.0,-999.0,88,-99.99,,,-99.99,MetarLogicWeatherSta,2013-08-13 14:53:00,
2013-08-13 10:58:00,69.3,66.2,29.77,South,180,0.0,-999.0,89,-99.99,,,-99.99,MetarLogicWeatherSta,2013-08-13 14:58:00,
2013-08-13 11:03:00,70.3,66.1,29.77,South,180,1.0,-999.0,86,-99.99,,,-99.99,MetarLogicWeatherSta,2013-08-13 15:03:00,
2013-08-13 11:08:00,70.8,66.5,29.77,South,180,0.0,-999.0,85,-99.99,,,-99.99,MetarLogicWeatherSta,2013-08-13 15:08:00,
2013-08-13 11:13:00,71.5,66.4,29.77,West,270,4.0,-999.0,83,-99.99,,,-99.99,MetarLogicWeatherSta,2013-08-13 15:13:00,
2013-08-13 11:18:00,71.5,65.8,29.77,South,180,0.0,-999.0,81,-99.99,,,-99.99,MetarLogicWeatherSta,2013-08-13 15:18:00,
2013-08-13 11:23:00,71.4,66.0,29.77,South,180,0.0,-999.0,82,-99.99,,,-99.99,MetarLogicWeatherSta,2013-08-13 15:23:00,
2013-08-13 11:28:00,72.1,66.3,29.77,South,180,0.0,-999.0,81,-99.99,,,-99.99,MetarLogicWeatherSta,2013-08-13 15:28:00,
2013-08-13 11:33:00,72.6,66.6,29.76,South,180,0.0,-999.0,81,-99.99,,,-99.99,MetarLogicWeatherSta,2013-08-13 15:33:00,
2013-08-13 11:38:00,73.0,66.5,29.77,South,180,0.0,-999.0,79,-99.99,,,-99.99,MetarLogicWeatherSta,2013-08-13 15:38:00,
2013-08-13 11:43:00,73.3,67.0,29.77,South,180,1.0,-999.0,80,-99.99,,,-99.99,MetarLogicWeatherSta,2013-08-13 15:43:00,
2013-08-13 11:48:00,73.7,66.8,29.77,South,180,0.0,-999.0,78,-99.99,,,-99.99,MetarLogicWeatherSta,2013-08-13 15:48:00,
2013-08-13 11:53:00,73.3,65.4,29.78,South,180,1.0,-999.0,75,-99.99,,,-99.99,MetarLogicWeatherSta,2013-08-13 15:53:00,
2013-08-13 11:58:00,72.2,64.9,29.78,South,180,1.0,-999.0,77,-99.99,,,-99.99,MetarLogicWeatherSta,2013-08-13 15:58:00,
2013-08-13 12:03:00,70.6,63.3,29.78,South,180,0.0,-999.0,77,-99.99,,,-99.99,MetarLogicWeatherSta,2013-08-13 16:03:00,
2013-08-13 12:08:00,69.4,63.2,29.78,South,180,0.0,-999.0,80,-99.99,,,-99.99,MetarLogicWeatherSta,2013-08-13 16:08:00,
2013-08-13 12:13:00,69.0,63.4,29.78,SSW,202,1.0,-999.0,82,-99.99,,,-99.99,MetarLogicWeatherSta,2013-08-13 16:13:00,
2013-08-13 12:18:00,68.5,63.4,29.78,SW,225,0.0,-999.0,83,-99.99,,,-99.99,MetarLogicWeatherSta,2013-08-13 16:18:00,
2013-08-13 12:23:00,68.5,63.5,29.78,South,180,1.0,-999.0,84,-99.99,,,-99.99,MetarLogicWeatherSta,2013-08-13 16:23:00,
2013-08-13 12:28:00,68.5,64.0,29.78,SSE,157,0.0,-999.0,85,-99.99,,,-99.99,MetarLogicWeatherSta,2013-08-13 16:28:00,
2013-08-13 12:33:00,68.8,64.6,29.78,West,270,3.0,-999.0,86,-99.99,,,-99.99,MetarLogicWeatherSta,2013-08-13 16:33:00,
2013-08-13 12:38:00,69.8,64.9,29.78,WNW,292,3.0,-999.0,84,-99.99,,,-99.99,MetarLogicWeatherSta,2013-08-13 16:38:00,
2013-08-13 12:43:00,70.7,65.3,29.78,South,180,3.0,-999.0,82,-99.99,,,-99.99,MetarLogicWeatherSta,2013-08-13 16:43:00,
2013-08-13 12:48:00,71.2,65.8,29.78,SSE,157,0.0,-999.0,82,-99.99,,,-99.99,MetarLogicWeatherSta,2013-08-13 16:48:00,
2013-08-13 12:53:00,71.9,66.4,29.78,SSW,202,1.0,-999.0,82,-99.99,,,-99.99,MetarLogicWeatherSta,2013-08-13 16:53:00,
2013-08-13 12:58:00,72.2,65.0,29.78,SW,225,4.0,-999.0,77,-99.99,,,-99.99,MetarLogicWeatherSta,2013-08-13 16:58:00,
2013-08-13 13:03:00,70.6,63.1,29.78,West,270,6.0,-999.0,76,-99.99,,,-99.99,MetarLogicWeatherSta,2013-08-13 17:03:00,
2013-08-13 13:08:00,69.6,63.2,29.77,South,180,1.0,-999.0,79,-99.99,,,-99.99,MetarLogicWeatherSta,2013-08-13 17:08:00,
2013-08-13 13:14:00,70.2,63.8,29.77,SW,225,4.0,-999.0,79,-99.99,,,-99.99,MetarLogicWeatherSta,2013-08-13 17:14:00,
2013-08-13 13:18:00,70.6,64.1,29.77,SW,225,4.0,-999.0,79,-99.99,,,-99.99,MetarLogicWeatherSta,2013-08-13 17:18:00,
2013-08-13 13:23:00,70.3,64.2,29.77,SSW,202,1.0,-999.0,80,-99.99,,,-99.99,MetarLogicWeatherSta,2013-08-13 17:23:00,
2013-08-13 13:28:00,71.0,63.8,29.78,SW,225,4.0,-999.0,77,-99.99,,,-99.99,MetarLogicWeatherSta,2013-08-13 17:28:00,
2013-08-13 13:33:00,72.1,65.0,29.77,SSW,202,1.0,-999.0,78,-99.99,,,-99.99,MetarLogicWeatherSta,2013-08-13 17:33:00,
2013-08-13 13:38:00,72.9,65.2,29.77,South,180,1.0,-999.0,76,-99.99,,,-99.99,MetarLogicWeatherSta,2013-08-13 17:38:00,
2013-08-13 13:43:00,73.1,65.4,29.77,South,180,0.0,-999.0,76,-99.99,,,-99.99,MetarLogicWeatherSta,2013-08-13 17:43:00,
2013-08-13 13:48:00,73.5,64.8,29.76,West,270,3.0,-999.0,74,-99.99,,,-99.99,MetarLogicWeatherSta,2013-08-13 17:48:00,
2013-08-13 13:53:00,73.2,63.1,29.77,WSW,247,4.0,-999.0,70,-99.99,,,-99.99,MetarLogicWeatherSta,2013-08-13 17:53:00,
2013-08-13 13:58:00,71.7,62.8,29.77,South,180,1.0,-999.0,73,-99.99,,,-99.99,MetarLogicWeatherSta,2013-08-13 17:58:00,
2013-08-13 14:03:00,71.0,63.2,29.77,SW,225,1.0,-999.0,75,-99.99,,,-99.99,MetarLogicWeatherSta,2013-08-13 18:03:00,
2013-08-13 14:09:00,71.2,63.7,29.77,SSW,202,1.0,-999.0,76,-99.99,,,-99.99,MetarLogicWeatherSta,2013-08-13 18:09:00,
2013-08-13 14:14:00,71.0,63.3,29.77,SW,225,1.0,-999.0,76,-99.99,,,-99.99,MetarLogicWeatherSta,2013-08-13 18:14:00,
2013-08-13 14:19:00,70.9,63.5,29.78,SSW,202,0.0,-999.0,77,-99.99,,,-99.99,MetarLogicWeatherSta,2013-08-13 18:19:00,
2013-08-13 14:24:00,70.9,62.6,29.78,South,180,1.0,-999.0,74,-99.99,,,-99.99,MetarLogicWeatherSta,2013-08-13 18:24:00,
2013-08-13 14:29:00,70.8,62.8,29.77,SW,225,1.0,-999.0,75,-99.99,,,-99.99,MetarLogicWeatherSta,2013-08-13 18:29:00,
2013-08-13 14:34:00,70.1,62.3,29.78,SSW,202,1.0,-999.0,75,-99.99,,,-99.99,MetarLogicWeatherSta,2013-08-13 18:34:00,
2013-08-13 14:39:00,69.7,61.9,29.78,SSE,157,0.0,-999.0,75,-99.99,,,-99.99,MetarLogicWeatherSta,2013-08-13 18:39:00,
2013-08-13 14:44:00,69.0,61.8,29.78,South,180,1.0,-999.0,77,-99.99,,,-99.99,MetarLogicWeatherSta,2013-08-13 18:44:00,
2013-08-13 14:49:00,68.8,62.4,29.78,West,270,6.0,-999.0,79,-99.99,,,-99.99,MetarLogicWeatherSta,2013-08-13 18:49:00,
2013-08-13 14:54:00,69.0,62.3,29.78,SW,225,1.0,-999.0,79,-99.99,,,-99.99,MetarLogicWeatherSta,2013-08-13 18:54:00,
2013-08-13 14:59:00,69.1,62.2,29.78,SSW,202,4.0,-999.0,78,-99.99,,,-99.99,MetarLogicWeatherSta,2013-08-13 18:59:00,
2013-08-13 15:07:00,69.5,62.0,29.78,North,0,3.0,-999.0,76,-99.99,,,-99.99,MetarLogicWeatherSta,2013-08-13 19:07:00,
2013-08-13 15:12:00,69.9,62.7,29.78,South,180,1.0,-999.0,77,-99.99,,,-99.99,MetarLogicWeatherSta,2013-08-13 19:12:00,
2013-08-13 15:17:00,70.0,62.4,29.78,South,180,0.0,-999.0,76,-99.99,,,-99.99,MetarLogicWeatherSta,2013-08-13 19:17:00,
2013-08-13 15:22:00,70.4,62.7,29.78,South,180,0.0,-999.0,76,-99.99,,,-99.99,MetarLogicWeatherSta,2013-08-13 19:22:00,
2013-08-13 15:27:00,70.3,62.1,29.78,South,180,3.0,-999.0,74,-99.99,,,-99.99,MetarLogicWeatherSta,2013-08-13 19:27:00,
2013-08-13 15:32:00,69.8,61.9,29.79,South,180,1.0,-999.0,75,-99.99,,,-99.99,MetarLogicWeatherSta,2013-08-13 19:32:00,
2013-08-13 15:37:00,69.3,61.6,29.78,South,180,0.0,-999.0,76,-99.99,,,-99.99,MetarLogicWeatherSta,2013-08-13 19:37:00,
2013-08-13 15:42:00,68.7,61.2,29.79,SSE,157,1.0,-999.0,76,-99.99,,,-99.99,MetarLogicWeatherSta,2013-08-13 19:42:00,
2013-08-13 15:47:00,68.6,61.3,29.79,South,180,0.0,-999.0,77,-99.99,,,-99.99,MetarLogicWeatherSta,2013-08-13 19:47:00,
2013-08-13 15:52:00,68.4,61.3,29.79,SSW,202,1.0,-999.0,77,-99.99,,,-99.99,MetarLogicWeatherSta,2013-08-13 19:52:00,
2013-08-13 15:57:00,68.3,60.7,29.79,SSW,202,0.0,-999.0,76,-99.99,,,-99.99,MetarLogicWeatherSta,2013-08-13 19:57:00,
2013-08-13 16:02:00,68.1,60.6,29.78,NW,315,6.0,-999.0,76,-99.99,,,-99.99,MetarLogicWeatherSta,2013-08-13 20:02:00,
2013-08-13 16:07:00,68.2,60.7,29.79,SW,225,1.0,-999.0,76,-99.99,,,-99.99,MetarLogicWeatherSta,2013-08-13 20:07:00,
2013-08-13 16:12:00,67.7,60.1,29.79,SSW,202,1.0,-999.0,76,-99.99,,,-99.99,MetarLogicWeatherSta,2013-08-13 20:12:00,
2013-08-13 16:17:00,67.4,59.8,29.79,South,180,0.0,-999.0,76,-99.99,,,-99.99,MetarLogicWeatherSta,2013-08-13 20:17:00,
2013-08-13 16:22:00,67.6,60.5,29.79,South,180,1.0,-999.0,77,-99.99,,,-99.99,MetarLogicWeatherSta,2013-08-13 20:22:00,
2013-08-13 16:27:00,67.6,60.2,29.79,South,180,0.0,-999.0,77,-99.99,,,-99.99,MetarLogicWeatherSta,2013-08-13 20:27:00,
2013-08-13 16:32:00,67.5,60.1,29.79,SSW,202,1.0,-999.0,76,-99.99,,,-99.99,MetarLogicWeatherSta,2013-08-13 20:32:00,
2013-08-13 16:37:00,67.3,59.5,29.79,SSW,202,4.0,-999.0,75,-99.99,,,-99.99,MetarLogicWeatherSta,2013-08-13 20:37:00,
2013-08-13 16:42:00,67.7,59.9,29.79,SW,225,4.0,-999.0,76,-99.99,,,-99.99,MetarLogicWeatherSta,2013-08-13 20:42:00,
2013-08-13 16:47:00,67.4,59.3,29.80,SSE,157,0.0,-999.0,74,-99.99,,,-99.99,MetarLogicWeatherSta,2013-08-13 20:47:00,
2013-08-13 16:52:00,67.4,59.8,29.80,SSW,202,0.0,-999.0,76,-99.99,,,-99.99,MetarLogicWeatherSta,2013-08-13 20:52:00,
2013-08-13 16:57:00,67.0,58.9,29.80,South,180,0.0,-999.0,74,-99.99,,,-99.99,MetarLogicWeatherSta,2013-08-13 20:57:00,
2013-08-13 17:02:00,66.7,58.7,29.80,SW,225,3.0,-999.0,75,-99.99,,,-99.99,MetarLogicWeatherSta,2013-08-13 21:02:00,
2013-08-13 17:07:00,66.8,58.9,29.80,WSW,247,1.0,-999.0,75,-99.99,,,-99.99,MetarLogicWeatherSta,2013-08-13 21:07:00,
2013-08-13 17:12:00,66.2,57.5,29.80,WNW,292,4.0,-999.0,73,-99.99,,,-99.99,MetarLogicWeatherSta,2013-08-13 21:12:00,
2013-08-13 17:17:00,65.8,56.8,29.80,SSW,202,3.0,-999.0,72,-99.99,,,-99.99,MetarLogicWeatherSta,2013-08-13 21:17:00,
2013-08-13 17:22:00,65.6,56.9,29.80,South,180,1.0,-999.0,73,-99.99,,,-99.99,MetarLogicWeatherSta,2013-08-13 21:22:00,
2013-08-13 17:27:00,65.1,56.7,29.80,SSW,202,1.0,-999.0,73,-99.99,,,-99.99,MetarLogicWeatherSta,2013-08-13 21:27:00,
2013-08-13 17:32:00,64.4,55.4,29.81,SSW,202,1.0,-999.0,72,-99.99,,,-99.99,MetarLogicWeatherSta,2013-08-13 21:32:00,
2013-08-13 17:37:00,64.6,56.3,29.81,South,180,0.0,-999.0,74,-99.99,,,-99.99,MetarLogicWeatherSta,2013-08-13 21:37:00,
2013-08-13 17:42:00,64.3,55.6,29.81,South,180,0.0,-999.0,73,-99.99,,,-99.99,MetarLogicWeatherSta,2013-08-13 21:42:00,
2013-08-13 17:50:00,64.1,55.5,29.81,South,180,1.0,-999.0,73,-99.99,,,-99.99,MetarLogicWeatherSta,2013-08-13 21:50:00,
2013-08-13 17:55:00,64.0,55.4,29.81,South,180,0.0,-999.0,73,-99.99,,,-99.99,MetarLogicWeatherSta,2013-08-13 21:55:00,
2013-08-13 18:00:00,63.8,55.5,29.82,SW,225,3.0,-999.0,74,-99.99,,,-99.99,MetarLogicWeatherSta,2013-08-13 22:00:00,
2013-08-13 18:05:00,63.8,54.9,29.82,South,180,0.0,-999.0,72,-99.99,,,-99.99,MetarLogicWeatherSta,2013-08-13 22:05:00,
2013-08-13 18:10:00,63.2,54.0,29.82,SSW,202,1.0,-999.0,71,-99.99,,,-99.99,MetarLogicWeatherSta,2013-08-13 22:10:00,
2013-08-13 18:15:00,63.2,53.6,29.82,WSW,247,1.0,-999.0,70,-99.99,,,-99.99,MetarLogicWeatherSta,2013-08-13 22:15:00,
2013-08-13 18:20:00,63.0,53.0,29.82,SSW,202,1.0,-999.0,69,-99.99,,,-99.99,MetarLogicWeatherSta,2013-08-13 22:20:00,
2013-08-13 18:25:00,62.8,53.4,29.82,SW,225,0.0,-999.0,71,-99.99,,,-99.99,MetarLogicWeatherSta,2013-08-13 22:25:00,
2013-08-13 18:30:00,62.4,53.4,29.82,South,180,0.0,-999.0,72,-99.99,,,-99.99,MetarLogicWeatherSta,2013-08-13 22:30:00,
2013-08-13 18:35:00,62.3,52.3,29.82,SW,225,3.0,-999.0,69,-99.99,,,-99.99,MetarLogicWeatherSta,2013-08-13 22:35:00,
2013-08-13 18:40:00,62.0,52.1,29.82,SSE,157,0.0,-999.0,69,-99.99,,,-99.99,MetarLogicWeatherSta,2013-08-13 22:40:00,
2013-08-13 18:45:00,62.3,53.1,29.83,SSE,157,0.0,-999.0,71,-99.99,,,-99.99,MetarLogicWeatherSta,2013-08-13 22:45:00,
2013-08-13 18:50:00,62.4,52.4,29.83,South,180,1.0,-999.0,69,-99.99,,,-99.99,MetarLogicWeatherSta,2013-08-13 22:50:00,
2013-08-13 18:55:00,62.2,51.6,29.84,South,180,0.0,-999.0,68,-99.99,,,-99.99,MetarLogicWeatherSta,2013-08-13 22:55:00,
2013-08-13 19:00:00,61.9,51.5,29.84,SE,135,0.0,-999.0,68,-99.99,,,-99.99,MetarLogicWeatherSta,2013-08-13 23:00:00,
2013-08-13 19:05:00,61.7,51.6,29.84,SSE,157,0.0,-999.0,69,-99.99,,,-99.99,MetarLogicWeatherSta,2013-08-13 23:05:00,
2013-08-13 19:10:00,61.4,51.6,29.84,SSW,202,0.0,-999.0,69,-99.99,,,-99.99,MetarLogicWeatherSta,2013-08-13 23:10:00,
2013-08-13 19:15:00,61.1,51.5,29.84,South,180,1.0,-999.0,70,-99.99,,,-99.99,MetarLogicWeatherSta,2013-08-13 23:15:00,
2013-08-13 19:20:00,60.3,51.0,29.84,SSW,202,0.0,-999.0,70,-99.99,,,-99.99,MetarLogicWeatherSta,2013-08-13 23:20:00,
2013-08-13 19:25:00,60.2,51.4,29.84,South,180,0.0,-999.0,72,-99.99,,,-99.99,MetarLogicWeatherSta,2013-08-13 23:25:00,
2013-08-13 19:30:00,59.8,51.1,29.84,South,180,0.0,-999.0,72,-99.99,,,-99.99,MetarLogicWeatherSta,2013-08-13 23:30:00,
2013-08-13 19:35:00,59.7,51.2,29.84,SSE,157,0.0,-999.0,73,-99.99,,,-99.99,MetarLogicWeatherSta,2013-08-13 23:35:00,
2013-08-13 19:42:00,59.4,51.2,29.84,South,180,0.0,-999.0,74,-99.99,,,-99.99,MetarLogicWeatherSta,2013-08-13 23:42:00,
2013-08-13 19:47:00,59.4,51.4,29.84,WSW,247,1.0,-999.0,74,-99.99,,,-99.99,MetarLogicWeatherSta,2013-08-13 23:47:00,
2013-08-13 19:52:00,59.3,51.4,29.84,South,180,1.0,-999.0,74,-99.99,,,-99.99,MetarLogicWeatherSta,2013-08-13 23:52:00,
2013-08-13 19:57:00,59.2,51.1,29.85,SSW,202,0.0,-999.0,74,-99.99,,,-99.99,MetarLogicWeatherSta,2013-08-13 23:57:00,
2013-08-13 20:02:00,59.0,50.8,29.85,SSW,202,0.0,-999.0,74,-99.99,,,-99.99,MetarLogicWeatherSta,2013-08-14 00:02:00,
2013-08-13 20:07:00,58.9,50.8,29.85,South,180,0.0,-999.0,74,-99.99,,,-99.99,MetarLogicWeatherSta,2013-08-14 00:07:00,
2013-08-13 20:12:00,58.9,50.8,29.86,South,180,0.0,-999.0,74,-99.99,,,-99.99,MetarLogicWeatherSta,2013-08-14 00:12:00,
2013-08-13 20:17:00,58.8,50.6,29.86,WNW,292,10.0,-999.0,73,-99.99,,,-99.99,MetarLogicWeatherSta,2013-08-14 00:17:00,
2013-08-13 20:22:00,58.7,50.5,29.86,SSW,198,0.1,10.0,73,-99.99,,,-99.99,MetarLogicWeatherSta,2013-08-14 00:22:00,
2013-08-13 20:27:00,58.7,50.6,29.86,South,180,0.0,-999.0,74,-99.99,,,-99.99,MetarLogicWeatherSta,2013-08-14 00:27:00,
2013-08-13 20:32:00,58.4,50.5,29.86,SW,225,0.0,-999.0,74,-99.99,,,-99.99,MetarLogicWeatherSta,2013-08-14 00:32:00,
2013-08-13 20:37:00,58.4,50.5,29.86,South,180,0.0,-999.0,74,-99.99,,,-99.99,MetarLogicWeatherSta,2013-08-14 00:37:00,
2013-08-13 20:42:00,58.4,50.5,29.86,SSE,157,0.0,-999.0,74,-99.99,,,-99.99,MetarLogicWeatherSta,2013-08-14 00:42:00,
2013-08-13 20:47:00,58.0,50.3,29.86,South,180,0.0,-999.0,75,-99.99,,,-99.99,MetarLogicWeatherSta,2013-08-14 00:47:00,
2013-08-13 20:52:00,57.8,49.9,29.86,South,180,0.0,-999.0,74,-99.99,,,-99.99,MetarLogicWeatherSta,2013-08-14 00:52:00,
2013-08-13 20:57:00,57.8,49.9,29.87,SSE,157,0.0,-999.0,74,-99.99,,,-99.99,MetarLogicWeatherSta,2013-08-14 00:57:00,
2013-08-13 21:03:00,57.8,50.2,29.87,SSE,157,0.0,-999.0,75,-99.99,,,-99.99,MetarLogicWeatherSta,2013-08-14 01:03:00,
2013-08-13 21:08:00,57.5,49.9,29.87,SSE,157,0.0,-999.0,75,-99.99,,,-99.99,MetarLogicWeatherSta,2013-08-14 01:08:00,
2013-08-13 21:13:00,57.7,50.2,29.88,South,180,0.0,-999.0,76,-99.99,,,-99.99,MetarLogicWeatherSta,2013-08-14 01:13:00,
2013-08-13 21:18:00,57.7,50.2,29.88,SSE,157,0.0,-999.0,76,-99.99,,,-99.99,MetarLogicWeatherSta,2013-08-14 01:18:00,
2013-08-13 21:23:00,57.4,50.3,29.88,SSE,157,0.0,-999.0,76,-99.99,,,-99.99,MetarLogicWeatherSta,2013-08-14 01:23:00,
2013-08-13 21:28:00,57.4,50.4,29.88,South,180,0.0,-999.0,77,-99.99,,,-99.99,MetarLogicWeatherSta,2013-08-14 01:28:00,
2013-08-13 21:33:00,57.3,50.1,29.88,South,180,0.0,-999.0,76,-99.99,,,-99.99,MetarLogicWeatherSta,2013-08-14 01:33:00,
2013-08-13 21:38:00,57.2,50.0,29.88,SSE,157,0.0,-999.0,76,-99.99,,,-99.99,MetarLogicWeatherSta,2013-08-14 01:38:00,
2013-08-13 21:43:00,57.1,50.0,29.88,South,180,0.0,-999.0,77,-99.99,,,-99.99,MetarLogicWeatherSta,2013-08-14 01:43:00,
2013-08-13 21:48:00,57.0,49.9,29.88,South,180,1.0,-999.0,77,-99.99,,,-99.99,MetarLogicWeatherSta,2013-08-14 01:48:00,
2013-08-13 21:53:00,57.0,49.9,29.88,South,180,0.0,-999.0,76,-99.99,,,-99.99,MetarLogicWeatherSta,2013-08-14 01:53:00,
2013-08-13 21:59:00,57.0,49.6,29.88,SSW,202,0.0,-999.0,76,-99.99,,,-99.99,MetarLogicWeatherSta,2013-08-14 01:59:00,
2013-08-13 22:04:00,56.8,49.7,29.88,SW,225,1.0,-999.0,76,-99.99,,,-99.99,MetarLogicWeatherSta,2013-08-14 02:04:00,
2013-08-13 22:09:00,56.8,49.7,29.88,SSE,157,0.0,-999.0,76,-99.99,,,-99.99,MetarLogicWeatherSta,2013-08-14 02:09:00,
2013-08-13 22:14:00,56.9,49.9,29.88,South,180,0.0,-999.0,77,-99.99,,,-99.99,MetarLogicWeatherSta,2013-08-14 02:14:00,
2013-08-13 22:19:00,56.8,50.0,29.88,SSE,157,0.0,-999.0,77,-99.99,,,-99.99,MetarLogicWeatherSta,2013-08-14 02:19:00,
2013-08-13 22:24:00,56.8,49.8,29.88,WSW,247,0.0,-999.0,77,-99.99,,,-99.99,MetarLogicWeatherSta,2013-08-14 02:24:00,
2013-08-13 22:29:00,56.7,49.6,29.88,South,180,0.0,-999.0,76,-99.99,,,-99.99,MetarLogicWeatherSta,2013-08-14 02:29:00,
2013-08-13 22:34:00,56.5,49.4,29.88,South,180,0.0,-999.0,76,-99.99,,,-99.99,MetarLogicWeatherSta,2013-08-14 02:34:00,
2013-08-13 22:39:00,56.6,49.5,29.88,South,180,0.0,-999.0,76,-99.99,,,-99.99,MetarLogicWeatherSta,2013-08-14 02:39:00,
2013-08-13 22:44:00,56.6,49.4,29.87,SSE,157,0.0,-999.0,76,-99.99,,,-99.99,MetarLogicWeatherSta,2013-08-14 02:44:00,
2013-08-13 22:49:00,56.5,49.4,29.88,SSE,157,0.0,-999.0,76,-99.99,,,-99.99,MetarLogicWeatherSta,2013-08-14 02:49:00,
2013-08-13 22:54:00,56.6,49.4,29.88,South,180,0.0,-999.0,76,-99.99,,,-99.99,MetarLogicWeatherSta,2013-08-14 02:54:00,
2013-08-13 23:00:00,56.6,49.5,29.88,South,180,0.0,-999.0,76,-99.99,,,-99.99,MetarLogicWeatherSta,2013-08-14 03:00:00,
2013-08-13 23:05:00,56.4,49.4,29.88,SSE,157,0.0,-999.0,77,-99.99,,,-99.99,MetarLogicWeatherSta,2013-08-14 03:05:00,
2013-08-13 23:10:00,56.1,49.2,29.87,South,180,0.0,-999.0,77,-99.99,,,-99.99,MetarLogicWeatherSta,2013-08-14 03:10:00,
2013-08-13 23:15:00,56.2,49.2,29.88,South,180,0.0,-999.0,76,-99.99,,,-99.99,MetarLogicWeatherSta,2013-08-14 03:15:00,
2013-08-13 23:20:00,56.3,49.0,29.87,South,180,0.0,-999.0,76,-99.99,,,-99.99,MetarLogicWeatherSta,2013-08-14 03:20:00,
2013-08-13 23:25:00,56.2,49.1,29.87,South,180,0.0,-999.0,76,-99.99,,,-99.99,MetarLogicWeatherSta,2013-08-14 03:25:00,
2013-08-13 23:30:00,56.2,49.0,29.87,South,180,0.0,-999.0,76,-99.99,,,-99.99,MetarLogicWeatherSta,2013-08-14 03:30:00,
2013-08-13 23:35:00,56.0,48.8,29.87,SE,135,0.0,-999.0,76,-99.99,,,-99.99,MetarLogicWeatherSta,2013-08-14 03:35:00,
2013-08-13 23:40:00,56.2,48.9,29.87,South,180,0.0,-999.0,76,-99.99,,,-99.99,MetarLogicWeatherSta,2013-08-14 03:40:00,
2013-08-13 23:45:00,55.8,48.6,29.87,South,180,0.0,-999.0,76,-99.99,,,-99.99,MetarLogicWeatherSta,2013-08-14 03:45:00,
2013-08-13 23:50:00,56.0,48.7,29.87,SE,135,0.0,-999.0,76,-99.99,,,-99.99,MetarLogicWeatherSta,2013-08-14 03:50:00,
2013-08-13 23:55:00,55.8,48.8,29.87,South,180,0.0,-999.0,76,-99.99,,,-99.99,MetarLogicWeatherSta,2013-08-14 03:55:00,